sensor_id;sensor_type;location;lat;lon;timestamp;P1;durP1;ratioP1;P2;durP2;ratioP2
65393;SDS011;52002;49.760;6.512;2023-11-22T00:00:08;2.50;;;1.00;;
65393;SDS011;52002;49.760;6.512;2023-11-22T00:02:38;1.90;;;1.00;;
65393;SDS011;52002;49.760;6.512;2023-11-22T00:05:04;1.50;;;1.40;;
65393;SDS011;52002;49.760;6.512;2023-11-22T00:07:30;1.10;;;1.00;;
65393;SDS011;52002;49.760;6.512;2023-11-22T00:09:56;1.30;;;1.00;;
65393;SDS011;52002;49.760;6.512;2023-11-22T00:12:23;2.50;;;1.40;;
65393;SDS011;52002;49.760;6.512;2023-11-22T00:14:49;3.00;;;1.20;;
65393;SDS011;52002;49.760;6.512;2023-11-22T00:17:15;2.90;;;1.20;;
65393;SDS011;52002;49.760;6.512;2023-11-22T00:19:43;1.70;;;1.40;;
65393;SDS011;52002;49.760;6.512;2023-11-22T00:22:12;2.50;;;1.30;;
65393;SDS011;52002;49.760;6.512;2023-11-22T00:24:41;5.10;;;1.50;;
65393;SDS011;52002;49.760;6.512;2023-11-22T00:27:07;2.20;;;1.30;;
65393;SDS011;52002;49.760;6.512;2023-11-22T00:29:35;3.40;;;1.30;;
65393;SDS011;52002;49.760;6.512;2023-11-22T00:32:00;1.70;;;1.40;;
65393;SDS011;52002;49.760;6.512;2023-11-22T00:34:26;3.10;;;1.30;;
65393;SDS011;52002;49.760;6.512;2023-11-22T00:36:51;2.40;;;1.50;;
65393;SDS011;52002;49.760;6.512;2023-11-22T00:39:17;2.20;;;1.40;;
65393;SDS011;52002;49.760;6.512;2023-11-22T00:41:43;1.90;;;1.50;;
65393;SDS011;52002;49.760;6.512;2023-11-22T00:44:11;1.90;;;1.40;;
65393;SDS011;52002;49.760;6.512;2023-11-22T00:46:37;3.70;;;1.70;;
65393;SDS011;52002;49.760;6.512;2023-11-22T00:49:03;2.50;;;1.60;;
65393;SDS011;52002;49.760;6.512;2023-11-22T00:51:33;3.10;;;1.40;;
65393;SDS011;52002;49.760;6.512;2023-11-22T00:53:59;2.30;;;1.50;;
65393;SDS011;52002;49.760;6.512;2023-11-22T00:56:24;3.80;;;1.70;;
65393;SDS011;52002;49.760;6.512;2023-11-22T00:58:50;1.60;;;1.50;;
65393;SDS011;52002;49.760;6.512;2023-11-22T01:01:16;2.50;;;1.80;;
65393;SDS011;52002;49.760;6.512;2023-11-22T01:03:43;4.60;;;1.40;;
65393;SDS011;52002;49.760;6.512;2023-11-22T01:06:08;2.90;;;1.60;;
65393;SDS011;52002;49.760;6.512;2023-11-22T01:08:34;2.10;;;1.50;;
65393;SDS011;52002;49.760;6.512;2023-11-22T01:11:00;2.00;;;1.60;;
65393;SDS011;52002;49.760;6.512;2023-11-22T01:13:28;4.30;;;1.60;;
65393;SDS011;52002;49.760;6.512;2023-11-22T01:15:53;3.00;;;1.80;;
65393;SDS011;52002;49.760;6.512;2023-11-22T01:18:19;2.60;;;1.60;;
65393;SDS011;52002;49.760;6.512;2023-11-22T01:20:45;1.60;;;1.50;;
65393;SDS011;52002;49.760;6.512;2023-11-22T01:23:10;2.30;;;1.70;;
65393;SDS011;52002;49.760;6.512;2023-11-22T01:25:35;1.40;;;1.30;;
65393;SDS011;52002;49.760;6.512;2023-11-22T01:28:01;1.50;;;1.40;;
65393;SDS011;52002;49.760;6.512;2023-11-22T01:30:26;1.50;;;1.40;;
65393;SDS011;52002;49.760;6.512;2023-11-22T01:32:53;3.20;;;1.50;;
65393;SDS011;52002;49.760;6.512;2023-11-22T01:35:20;2.10;;;1.80;;
65393;SDS011;52002;49.760;6.512;2023-11-22T01:37:45;3.30;;;1.90;;
65393;SDS011;52002;49.760;6.512;2023-11-22T01:40:11;2.60;;;1.80;;
65393;SDS011;52002;49.760;6.512;2023-11-22T01:42:38;2.10;;;1.80;;
65393;SDS011;52002;49.760;6.512;2023-11-22T01:45:05;3.10;;;2.00;;
65393;SDS011;52002;49.760;6.512;2023-11-22T01:47:32;3.10;;;1.90;;
65393;SDS011;52002;49.760;6.512;2023-11-22T01:49:58;2.90;;;2.10;;
65393;SDS011;52002;49.760;6.512;2023-11-22T01:52:23;2.00;;;1.80;;
65393;SDS011;52002;49.760;6.512;2023-11-22T01:54:49;4.30;;;1.80;;
65393;SDS011;52002;49.760;6.512;2023-11-22T01:57:14;4.10;;;1.90;;
65393;SDS011;52002;49.760;6.512;2023-11-22T01:59:40;4.00;;;2.40;;
65393;SDS011;52002;49.760;6.512;2023-11-22T02:02:08;3.00;;;2.30;;
65393;SDS011;52002;49.760;6.512;2023-11-22T02:04:34;2.80;;;2.10;;
65393;SDS011;52002;49.760;6.512;2023-11-22T02:06:59;5.50;;;2.50;;
65393;SDS011;52002;49.760;6.512;2023-11-22T02:09:25;4.30;;;2.30;;
65393;SDS011;52002;49.760;6.512;2023-11-22T02:11:50;4.10;;;2.00;;
65393;SDS011;52002;49.760;6.512;2023-11-22T02:14:15;5.70;;;2.50;;
65393;SDS011;52002;49.760;6.512;2023-11-22T02:16:41;2.50;;;1.60;;
65393;SDS011;52002;49.760;6.512;2023-11-22T02:19:06;2.30;;;2.00;;
65393;SDS011;52002;49.760;6.512;2023-11-22T02:21:37;5.70;;;2.30;;
65393;SDS011;52002;49.760;6.512;2023-11-22T02:24:02;3.20;;;2.20;;
65393;SDS011;52002;49.760;6.512;2023-11-22T02:26:28;3.60;;;2.40;;
65393;SDS011;52002;49.760;6.512;2023-11-22T02:28:54;4.10;;;2.20;;
65393;SDS011;52002;49.760;6.512;2023-11-22T02:31:20;2.20;;;2.00;;
65393;SDS011;52002;49.760;6.512;2023-11-22T02:33:45;3.50;;;2.10;;
65393;SDS011;52002;49.760;6.512;2023-11-22T02:36:10;4.00;;;2.20;;
65393;SDS011;52002;49.760;6.512;2023-11-22T02:38:39;7.30;;;2.30;;
65393;SDS011;52002;49.760;6.512;2023-11-22T02:41:05;3.40;;;2.40;;
65393;SDS011;52002;49.760;6.512;2023-11-22T02:43:30;3.90;;;2.10;;
65393;SDS011;52002;49.760;6.512;2023-11-22T02:45:56;7.90;;;2.50;;
65393;SDS011;52002;49.760;6.512;2023-11-22T02:48:22;2.60;;;1.90;;
65393;SDS011;52002;49.760;6.512;2023-11-22T02:50:48;6.50;;;2.10;;
65393;SDS011;52002;49.760;6.512;2023-11-22T02:53:14;5.00;;;2.00;;
65393;SDS011;52002;49.760;6.512;2023-11-22T02:55:39;5.30;;;2.00;;
65393;SDS011;52002;49.760;6.512;2023-11-22T02:58:06;3.80;;;2.00;;
65393;SDS011;52002;49.760;6.512;2023-11-22T03:00:31;2.00;;;1.70;;
65393;SDS011;52002;49.760;6.512;2023-11-22T03:02:59;3.90;;;2.10;;
65393;SDS011;52002;49.760;6.512;2023-11-22T03:05:25;2.70;;;1.90;;
65393;SDS011;52002;49.760;6.512;2023-11-22T03:07:50;3.20;;;1.90;;
65393;SDS011;52002;49.760;6.512;2023-11-22T03:10:16;3.10;;;1.60;;
65393;SDS011;52002;49.760;6.512;2023-11-22T03:12:43;2.40;;;1.60;;
65393;SDS011;52002;49.760;6.512;2023-11-22T03:15:09;2.50;;;1.60;;
65393;SDS011;52002;49.760;6.512;2023-11-22T03:17:34;1.80;;;1.40;;
65393;SDS011;52002;49.760;6.512;2023-11-22T03:20:00;2.40;;;1.90;;
65393;SDS011;52002;49.760;6.512;2023-11-22T03:22:26;2.80;;;2.00;;
65393;SDS011;52002;49.760;6.512;2023-11-22T03:24:54;2.20;;;1.80;;
65393;SDS011;52002;49.760;6.512;2023-11-22T03:27:20;2.00;;;1.80;;
65393;SDS011;52002;49.760;6.512;2023-11-22T03:29:47;2.00;;;1.70;;
65393;SDS011;52002;49.760;6.512;2023-11-22T03:32:13;2.40;;;2.00;;
65393;SDS011;52002;49.760;6.512;2023-11-22T03:34:38;3.50;;;1.70;;
65393;SDS011;52002;49.760;6.512;2023-11-22T03:37:03;3.90;;;1.90;;
65393;SDS011;52002;49.760;6.512;2023-11-22T03:39:29;2.20;;;1.50;;
65393;SDS011;52002;49.760;6.512;2023-11-22T03:41:55;1.70;;;1.60;;
65393;SDS011;52002;49.760;6.512;2023-11-22T03:44:20;1.60;;;1.50;;
65393;SDS011;52002;49.760;6.512;2023-11-22T03:46:45;2.00;;;1.70;;
65393;SDS011;52002;49.760;6.512;2023-11-22T03:49:11;2.40;;;1.70;;
65393;SDS011;52002;49.760;6.512;2023-11-22T03:51:39;3.70;;;1.50;;
65393;SDS011;52002;49.760;6.512;2023-11-22T03:54:07;2.10;;;1.50;;
65393;SDS011;52002;49.760;6.512;2023-11-22T03:56:32;2.60;;;1.80;;
65393;SDS011;52002;49.760;6.512;2023-11-22T03:58:58;2.20;;;2.00;;
65393;SDS011;52002;49.760;6.512;2023-11-22T04:01:24;2.40;;;1.80;;
65393;SDS011;52002;49.760;6.512;2023-11-22T04:03:49;3.50;;;1.80;;
65393;SDS011;52002;49.760;6.512;2023-11-22T04:06:16;4.80;;;2.00;;
65393;SDS011;52002;49.760;6.512;2023-11-22T04:08:43;2.20;;;1.90;;
65393;SDS011;52002;49.760;6.512;2023-11-22T04:11:09;4.70;;;1.90;;
65393;SDS011;52002;49.760;6.512;2023-11-22T04:13:35;3.20;;;2.00;;
65393;SDS011;52002;49.760;6.512;2023-11-22T04:16:00;5.00;;;2.50;;
65393;SDS011;52002;49.760;6.512;2023-11-22T04:18:26;4.80;;;1.70;;
65393;SDS011;52002;49.760;6.512;2023-11-22T04:20:52;1.60;;;1.50;;
65393;SDS011;52002;49.760;6.512;2023-11-22T04:23:17;2.30;;;1.70;;
65393;SDS011;52002;49.760;6.512;2023-11-22T04:25:43;2.30;;;1.90;;
65393;SDS011;52002;49.760;6.512;2023-11-22T04:28:09;4.70;;;2.10;;
65393;SDS011;52002;49.760;6.512;2023-11-22T04:30:35;6.90;;;2.10;;
65393;SDS011;52002;49.760;6.512;2023-11-22T04:33:01;2.10;;;1.60;;
65393;SDS011;52002;49.760;6.512;2023-11-22T04:35:26;5.10;;;2.10;;
65393;SDS011;52002;49.760;6.512;2023-11-22T04:37:52;5.90;;;2.30;;
65393;SDS011;52002;49.760;6.512;2023-11-22T04:40:20;2.60;;;2.10;;
65393;SDS011;52002;49.760;6.512;2023-11-22T04:42:46;2.40;;;2.00;;
65393;SDS011;52002;49.760;6.512;2023-11-22T04:45:13;5.00;;;2.10;;
65393;SDS011;52002;49.760;6.512;2023-11-22T04:47:38;2.30;;;1.50;;
65393;SDS011;52002;49.760;6.512;2023-11-22T04:50:05;2.20;;;2.00;;
65393;SDS011;52002;49.760;6.512;2023-11-22T04:52:30;2.40;;;2.00;;
65393;SDS011;52002;49.760;6.512;2023-11-22T04:54:56;4.60;;;1.80;;
65393;SDS011;52002;49.760;6.512;2023-11-22T04:57:22;1.80;;;1.60;;
65393;SDS011;52002;49.760;6.512;2023-11-22T04:59:47;2.10;;;1.90;;
65393;SDS011;52002;49.760;6.512;2023-11-22T05:02:12;1.90;;;1.80;;
65393;SDS011;52002;49.760;6.512;2023-11-22T05:04:37;5.70;;;2.00;;
65393;SDS011;52002;49.760;6.512;2023-11-22T05:07:03;5.40;;;2.00;;
65393;SDS011;52002;49.760;6.512;2023-11-22T05:09:28;1.90;;;1.70;;
65393;SDS011;52002;49.760;6.512;2023-11-22T05:11:54;4.70;;;2.10;;
65393;SDS011;52002;49.760;6.512;2023-11-22T05:14:19;3.00;;;2.10;;
65393;SDS011;52002;49.760;6.512;2023-11-22T05:16:44;2.50;;;1.90;;
65393;SDS011;52002;49.760;6.512;2023-11-22T05:19:10;2.80;;;1.90;;
65393;SDS011;52002;49.760;6.512;2023-11-22T05:21:35;1.90;;;1.60;;
65393;SDS011;52002;49.760;6.512;2023-11-22T05:24:00;2.20;;;1.90;;
65393;SDS011;52002;49.760;6.512;2023-11-22T05:26:26;2.10;;;1.60;;
65393;SDS011;52002;49.760;6.512;2023-11-22T05:28:52;3.40;;;1.80;;
65393;SDS011;52002;49.760;6.512;2023-11-22T05:31:19;6.60;;;1.90;;
65393;SDS011;52002;49.760;6.512;2023-11-22T05:33:45;2.70;;;1.80;;
65393;SDS011;52002;49.760;6.512;2023-11-22T05:36:10;2.30;;;1.90;;
65393;SDS011;52002;49.760;6.512;2023-11-22T05:38:36;3.00;;;1.70;;
65393;SDS011;52002;49.760;6.512;2023-11-22T05:41:03;4.70;;;1.80;;
65393;SDS011;52002;49.760;6.512;2023-11-22T05:43:28;4.50;;;1.90;;
65393;SDS011;52002;49.760;6.512;2023-11-22T05:45:54;15.30;;;3.90;;
65393;SDS011;52002;49.760;6.512;2023-11-22T05:48:19;3.50;;;2.30;;
65393;SDS011;52002;49.760;6.512;2023-11-22T05:50:45;3.40;;;2.10;;
65393;SDS011;52002;49.760;6.512;2023-11-22T05:53:11;2.40;;;2.10;;
65393;SDS011;52002;49.760;6.512;2023-11-22T05:55:37;4.40;;;1.90;;
65393;SDS011;52002;49.760;6.512;2023-11-22T05:58:03;5.50;;;2.20;;
65393;SDS011;52002;49.760;6.512;2023-11-22T06:00:28;3.30;;;2.20;;
65393;SDS011;52002;49.760;6.512;2023-11-22T06:02:54;3.10;;;1.80;;
65393;SDS011;52002;49.760;6.512;2023-11-22T06:05:20;2.90;;;2.30;;
65393;SDS011;52002;49.760;6.512;2023-11-22T06:07:46;3.80;;;2.20;;
65393;SDS011;52002;49.760;6.512;2023-11-22T06:10:12;2.80;;;2.00;;
65393;SDS011;52002;49.760;6.512;2023-11-22T06:12:39;8.50;;;2.70;;
65393;SDS011;52002;49.760;6.512;2023-11-22T06:15:04;2.60;;;2.20;;
65393;SDS011;52002;49.760;6.512;2023-11-22T06:17:30;4.00;;;3.10;;
65393;SDS011;52002;49.760;6.512;2023-11-22T06:19:55;5.30;;;2.00;;
65393;SDS011;52002;49.760;6.512;2023-11-22T06:22:21;2.20;;;1.80;;
65393;SDS011;52002;49.760;6.512;2023-11-22T06:24:46;5.10;;;2.10;;
65393;SDS011;52002;49.760;6.512;2023-11-22T06:27:13;2.80;;;2.20;;
65393;SDS011;52002;49.760;6.512;2023-11-22T06:29:40;4.90;;;1.70;;
65393;SDS011;52002;49.760;6.512;2023-11-22T06:32:08;5.00;;;1.90;;
65393;SDS011;52002;49.760;6.512;2023-11-22T06:34:34;2.50;;;1.70;;
65393;SDS011;52002;49.760;6.512;2023-11-22T06:37:01;2.90;;;2.10;;
65393;SDS011;52002;49.760;6.512;2023-11-22T06:39:26;2.10;;;1.90;;
65393;SDS011;52002;49.760;6.512;2023-11-22T06:41:52;3.10;;;2.30;;
65393;SDS011;52002;49.760;6.512;2023-11-22T06:44:17;2.40;;;2.10;;
65393;SDS011;52002;49.760;6.512;2023-11-22T06:46:42;6.70;;;2.70;;
65393;SDS011;52002;49.760;6.512;2023-11-22T06:49:07;2.40;;;2.00;;
65393;SDS011;52002;49.760;6.512;2023-11-22T06:51:34;2.80;;;1.90;;
65393;SDS011;52002;49.760;6.512;2023-11-22T06:53:59;3.10;;;2.30;;
65393;SDS011;52002;49.760;6.512;2023-11-22T06:56:24;4.60;;;2.20;;
65393;SDS011;52002;49.760;6.512;2023-11-22T06:58:50;3.20;;;2.20;;
65393;SDS011;52002;49.760;6.512;2023-11-22T07:01:16;2.70;;;2.00;;
65393;SDS011;52002;49.760;6.512;2023-11-22T07:03:41;2.80;;;2.00;;
65393;SDS011;52002;49.760;6.512;2023-11-22T07:06:07;2.50;;;2.20;;
65393;SDS011;52002;49.760;6.512;2023-11-22T07:08:33;7.90;;;2.50;;
65393;SDS011;52002;49.760;6.512;2023-11-22T07:10:59;3.10;;;2.10;;
65393;SDS011;52002;49.760;6.512;2023-11-22T07:13:25;4.40;;;2.30;;
65393;SDS011;52002;49.760;6.512;2023-11-22T07:15:51;3.00;;;2.40;;
65393;SDS011;52002;49.760;6.512;2023-11-22T07:18:19;6.60;;;2.10;;
65393;SDS011;52002;49.760;6.512;2023-11-22T07:20:44;3.90;;;2.30;;
65393;SDS011;52002;49.760;6.512;2023-11-22T07:23:13;2.90;;;2.30;;
65393;SDS011;52002;49.760;6.512;2023-11-22T07:25:39;3.80;;;2.40;;
65393;SDS011;52002;49.760;6.512;2023-11-22T07:28:06;4.40;;;2.50;;
65393;SDS011;52002;49.760;6.512;2023-11-22T07:30:32;4.50;;;2.60;;
65393;SDS011;52002;49.760;6.512;2023-11-22T07:32:58;14.20;;;6.50;;
65393;SDS011;52002;49.760;6.512;2023-11-22T07:35:26;10.10;;;4.20;;
65393;SDS011;52002;49.760;6.512;2023-11-22T07:37:53;4.40;;;2.80;;
65393;SDS011;52002;49.760;6.512;2023-11-22T07:40:19;3.40;;;2.30;;
65393;SDS011;52002;49.760;6.512;2023-11-22T07:42:47;7.10;;;2.80;;
65393;SDS011;52002;49.760;6.512;2023-11-22T07:45:12;5.40;;;3.10;;
65393;SDS011;52002;49.760;6.512;2023-11-22T07:47:38;3.20;;;2.40;;
65393;SDS011;52002;49.760;6.512;2023-11-22T07:50:09;4.70;;;2.50;;
65393;SDS011;52002;49.760;6.512;2023-11-22T07:52:36;4.10;;;2.70;;
65393;SDS011;52002;49.760;6.512;2023-11-22T07:55:03;4.80;;;3.00;;
65393;SDS011;52002;49.760;6.512;2023-11-22T07:57:32;4.50;;;2.80;;
65393;SDS011;52002;49.760;6.512;2023-11-22T07:59:58;4.20;;;2.90;;
65393;SDS011;52002;49.760;6.512;2023-11-22T08:02:26;4.40;;;2.30;;
65393;SDS011;52002;49.760;6.512;2023-11-22T08:04:52;2.70;;;2.20;;
65393;SDS011;52002;49.760;6.512;2023-11-22T08:07:18;5.70;;;2.10;;
65393;SDS011;52002;49.760;6.512;2023-11-22T08:09:44;1.90;;;1.40;;
65393;SDS011;52002;49.760;6.512;2023-11-22T08:12:09;1.70;;;1.30;;
65393;SDS011;52002;49.760;6.512;2023-11-22T08:14:36;1.80;;;1.60;;
65393;SDS011;52002;49.760;6.512;2023-11-22T08:17:02;1.70;;;1.30;;
65393;SDS011;52002;49.760;6.512;2023-11-22T08:19:28;2.40;;;1.40;;
65393;SDS011;52002;49.760;6.512;2023-11-22T08:21:54;1.50;;;1.00;;
65393;SDS011;52002;49.760;6.512;2023-11-22T08:24:20;0.80;;;0.80;;
65393;SDS011;52002;49.760;6.512;2023-11-22T08:26:45;1.40;;;1.10;;
65393;SDS011;52002;49.760;6.512;2023-11-22T08:29:11;4.70;;;1.30;;
65393;SDS011;52002;49.760;6.512;2023-11-22T08:31:36;1.70;;;0.90;;
65393;SDS011;52002;49.760;6.512;2023-11-22T08:34:02;1.50;;;0.90;;
65393;SDS011;52002;49.760;6.512;2023-11-22T08:36:32;1.20;;;1.00;;
65393;SDS011;52002;49.760;6.512;2023-11-22T08:38:59;1.10;;;1.00;;
65393;SDS011;52002;49.760;6.512;2023-11-22T08:41:26;1.50;;;1.00;;
65393;SDS011;52002;49.760;6.512;2023-11-22T08:43:52;1.30;;;1.00;;
65393;SDS011;52002;49.760;6.512;2023-11-22T08:46:17;1.80;;;0.50;;
65393;SDS011;52002;49.760;6.512;2023-11-22T08:48:43;1.80;;;0.90;;
65393;SDS011;52002;49.760;6.512;2023-11-22T08:51:08;1.20;;;0.90;;
65393;SDS011;52002;49.760;6.512;2023-11-22T08:53:35;0.60;;;0.60;;
65393;SDS011;52002;49.760;6.512;2023-11-22T08:56:00;0.60;;;0.60;;
65393;SDS011;52002;49.760;6.512;2023-11-22T08:58:25;1.00;;;0.70;;
65393;SDS011;52002;49.760;6.512;2023-11-22T09:00:52;1.90;;;0.80;;
65393;SDS011;52002;49.760;6.512;2023-11-22T09:03:18;1.30;;;0.80;;
65393;SDS011;52002;49.760;6.512;2023-11-22T09:05:44;2.40;;;0.80;;
65393;SDS011;52002;49.760;6.512;2023-11-22T09:08:11;0.50;;;0.50;;
65393;SDS011;52002;49.760;6.512;2023-11-22T09:10:38;0.70;;;0.70;;
65393;SDS011;52002;49.760;6.512;2023-11-22T09:13:06;1.90;;;0.90;;
65393;SDS011;52002;49.760;6.512;2023-11-22T09:15:31;11.70;;;1.40;;
65393;SDS011;52002;49.760;6.512;2023-11-22T09:17:58;1.20;;;0.70;;
65393;SDS011;52002;49.760;6.512;2023-11-22T09:20:25;1.10;;;0.80;;
65393;SDS011;52002;49.760;6.512;2023-11-22T09:22:51;0.80;;;0.60;;
65393;SDS011;52002;49.760;6.512;2023-11-22T09:25:20;0.90;;;0.50;;
65393;SDS011;52002;49.760;6.512;2023-11-22T09:27:48;1.00;;;0.40;;
65393;SDS011;52002;49.760;6.512;2023-11-22T09:30:16;0.60;;;0.60;;
65393;SDS011;52002;49.760;6.512;2023-11-22T09:33:01;2.10;;;0.60;;
65393;SDS011;52002;49.760;6.512;2023-11-22T09:35:27;1.00;;;0.60;;
65393;SDS011;52002;49.760;6.512;2023-11-22T09:37:59;0.20;;;0.20;;
65393;SDS011;52002;49.760;6.512;2023-11-22T09:40:28;1.20;;;0.60;;
65393;SDS011;52002;49.760;6.512;2023-11-22T09:42:57;1.90;;;1.10;;
65393;SDS011;52002;49.760;6.512;2023-11-22T09:45:24;0.50;;;0.50;;
65393;SDS011;52002;49.760;6.512;2023-11-22T09:47:50;0.40;;;0.40;;
65393;SDS011;52002;49.760;6.512;2023-11-22T09:50:20;1.70;;;0.60;;
65393;SDS011;52002;49.760;6.512;2023-11-22T09:52:51;1.20;;;0.70;;
65393;SDS011;52002;49.760;6.512;2023-11-22T09:55:22;0.40;;;0.40;;
65393;SDS011;52002;49.760;6.512;2023-11-22T09:57:53;0.50;;;0.50;;
65393;SDS011;52002;49.760;6.512;2023-11-22T10:00:20;0.30;;;0.30;;
65393;SDS011;52002;49.760;6.512;2023-11-22T10:02:49;0.30;;;0.30;;
65393;SDS011;52002;49.760;6.512;2023-11-22T10:05:15;2.40;;;0.40;;
65393;SDS011;52002;49.760;6.512;2023-11-22T10:07:40;0.30;;;0.30;;
65393;SDS011;52002;49.760;6.512;2023-11-22T10:10:06;0.50;;;0.50;;
65393;SDS011;52002;49.760;6.512;2023-11-22T10:12:32;0.90;;;0.60;;
65393;SDS011;52002;49.760;6.512;2023-11-22T10:15:14;1.10;;;0.50;;
65393;SDS011;52002;49.760;6.512;2023-11-22T10:17:47;0.50;;;0.50;;
65393;SDS011;52002;49.760;6.512;2023-11-22T10:20:18;0.40;;;0.30;;
65393;SDS011;52002;49.760;6.512;2023-11-22T10:22:44;0.50;;;0.40;;
65393;SDS011;52002;49.760;6.512;2023-11-22T10:25:11;1.50;;;0.70;;
65393;SDS011;52002;49.760;6.512;2023-11-22T10:27:38;0.70;;;0.50;;
65393;SDS011;52002;49.760;6.512;2023-11-22T10:30:04;4.90;;;0.50;;
65393;SDS011;52002;49.760;6.512;2023-11-22T10:32:30;0.40;;;0.40;;
65393;SDS011;52002;49.760;6.512;2023-11-22T10:34:55;0.50;;;0.40;;
65393;SDS011;52002;49.760;6.512;2023-11-22T10:37:20;1.10;;;0.50;;
65393;SDS011;52002;49.760;6.512;2023-11-22T10:39:50;0.80;;;0.60;;
65393;SDS011;52002;49.760;6.512;2023-11-22T10:42:16;0.60;;;0.60;;
65393;SDS011;52002;49.760;6.512;2023-11-22T10:44:42;0.80;;;0.70;;
65393;SDS011;52002;49.760;6.512;2023-11-22T10:47:08;1.00;;;0.60;;
65393;SDS011;52002;49.760;6.512;2023-11-22T10:49:35;0.50;;;0.40;;
65393;SDS011;52002;49.760;6.512;2023-11-22T10:52:01;0.40;;;0.40;;
65393;SDS011;52002;49.760;6.512;2023-11-22T10:54:30;1.10;;;0.40;;
65393;SDS011;52002;49.760;6.512;2023-11-22T10:56:57;0.60;;;0.50;;
65393;SDS011;52002;49.760;6.512;2023-11-22T10:59:26;0.60;;;0.50;;
65393;SDS011;52002;49.760;6.512;2023-11-22T11:01:56;0.30;;;0.30;;
65393;SDS011;52002;49.760;6.512;2023-11-22T11:04:24;3.60;;;0.50;;
65393;SDS011;52002;49.760;6.512;2023-11-22T11:06:54;0.60;;;0.40;;
65393;SDS011;52002;49.760;6.512;2023-11-22T11:09:22;0.50;;;0.50;;
65393;SDS011;52002;49.760;6.512;2023-11-22T11:11:51;0.80;;;0.40;;
65393;SDS011;52002;49.760;6.512;2023-11-22T11:14:17;0.40;;;0.40;;
65393;SDS011;52002;49.760;6.512;2023-11-22T11:16:43;4.10;;;0.50;;
65393;SDS011;52002;49.760;6.512;2023-11-22T11:19:14;0.30;;;0.30;;
65393;SDS011;52002;49.760;6.512;2023-11-22T11:21:42;0.40;;;0.40;;
65393;SDS011;52002;49.760;6.512;2023-11-22T11:24:08;0.40;;;0.40;;
65393;SDS011;52002;49.760;6.512;2023-11-22T11:26:33;0.40;;;0.40;;
65393;SDS011;52002;49.760;6.512;2023-11-22T11:29:01;1.30;;;0.40;;
65393;SDS011;52002;49.760;6.512;2023-11-22T11:31:32;0.40;;;0.30;;
65393;SDS011;52002;49.760;6.512;2023-11-22T11:34:00;1.80;;;0.60;;
65393;SDS011;52002;49.760;6.512;2023-11-22T11:36:27;4.10;;;0.50;;
65393;SDS011;52002;49.760;6.512;2023-11-22T11:38:54;0.50;;;0.40;;
65393;SDS011;52002;49.760;6.512;2023-11-22T11:41:25;1.30;;;0.50;;
65393;SDS011;52002;49.760;6.512;2023-11-22T11:43:52;2.30;;;0.60;;
65393;SDS011;52002;49.760;6.512;2023-11-22T11:46:17;0.70;;;0.40;;
65393;SDS011;52002;49.760;6.512;2023-11-22T11:48:43;0.40;;;0.40;;
65393;SDS011;52002;49.760;6.512;2023-11-22T11:51:10;3.30;;;0.50;;
65393;SDS011;52002;49.760;6.512;2023-11-22T11:53:38;0.50;;;0.30;;
65393;SDS011;52002;49.760;6.512;2023-11-22T11:56:04;1.10;;;0.40;;
65393;SDS011;52002;49.760;6.512;2023-11-22T11:58:30;0.40;;;0.40;;
65393;SDS011;52002;49.760;6.512;2023-11-22T12:00:57;0.70;;;0.40;;
65393;SDS011;52002;49.760;6.512;2023-11-22T12:03:22;0.80;;;0.70;;
65393;SDS011;52002;49.760;6.512;2023-11-22T12:05:48;1.20;;;0.70;;
65393;SDS011;52002;49.760;6.512;2023-11-22T12:08:16;3.20;;;0.60;;
65393;SDS011;52002;49.760;6.512;2023-11-22T12:10:42;0.40;;;0.40;;
65393;SDS011;52002;49.760;6.512;2023-11-22T12:13:08;1.30;;;0.70;;
65393;SDS011;52002;49.760;6.512;2023-11-22T12:15:34;1.30;;;0.60;;
65393;SDS011;52002;49.760;6.512;2023-11-22T12:18:03;0.40;;;0.40;;
65393;SDS011;52002;49.760;6.512;2023-11-22T12:20:29;0.60;;;0.40;;
65393;SDS011;52002;49.760;6.512;2023-11-22T12:22:59;0.90;;;0.50;;
65393;SDS011;52002;49.760;6.512;2023-11-22T12:28:48;2.00;;;0.40;;
65393;SDS011;52002;49.760;6.512;2023-11-22T12:31:14;0.50;;;0.30;;
65393;SDS011;52002;49.760;6.512;2023-11-22T12:33:40;0.60;;;0.60;;
65393;SDS011;52002;49.760;6.512;2023-11-22T12:36:08;0.60;;;0.50;;
65393;SDS011;52002;49.760;6.512;2023-11-22T12:38:35;0.40;;;0.40;;
65393;SDS011;52002;49.760;6.512;2023-11-22T12:41:02;0.50;;;0.30;;
65393;SDS011;52002;49.760;6.512;2023-11-22T12:43:28;0.50;;;0.40;;
65393;SDS011;52002;49.760;6.512;2023-11-22T12:46:06;0.40;;;0.40;;
65393;SDS011;52002;49.760;6.512;2023-11-22T12:48:32;1.90;;;0.30;;
65393;SDS011;52002;49.760;6.512;2023-11-22T12:50:59;1.80;;;0.40;;
65393;SDS011;52002;49.760;6.512;2023-11-22T12:53:26;0.50;;;0.50;;
65393;SDS011;52002;49.760;6.512;2023-11-22T12:55:55;0.60;;;0.60;;
65393;SDS011;52002;49.760;6.512;2023-11-22T12:58:22;1.50;;;0.80;;
65393;SDS011;52002;49.760;6.512;2023-11-22T13:00:49;0.70;;;0.60;;
65393;SDS011;52002;49.760;6.512;2023-11-22T13:03:28;0.90;;;0.50;;
65393;SDS011;52002;49.760;6.512;2023-11-22T13:05:53;0.40;;;0.40;;
65393;SDS011;52002;49.760;6.512;2023-11-22T13:08:19;0.60;;;0.40;;
65393;SDS011;52002;49.760;6.512;2023-11-22T13:10:47;0.30;;;0.30;;
65393;SDS011;52002;49.760;6.512;2023-11-22T13:13:24;3.80;;;0.50;;
65393;SDS011;52002;49.760;6.512;2023-11-22T13:15:50;0.50;;;0.40;;
65393;SDS011;52002;49.760;6.512;2023-11-22T13:18:16;0.40;;;0.30;;
65393;SDS011;52002;49.760;6.512;2023-11-22T13:20:42;0.40;;;0.40;;
65393;SDS011;52002;49.760;6.512;2023-11-22T13:23:08;0.40;;;0.40;;
65393;SDS011;52002;49.760;6.512;2023-11-22T13:25:34;0.70;;;0.40;;
65393;SDS011;52002;49.760;6.512;2023-11-22T13:28:00;0.40;;;0.40;;
65393;SDS011;52002;49.760;6.512;2023-11-22T13:30:26;0.30;;;0.30;;
65393;SDS011;52002;49.760;6.512;2023-11-22T13:32:52;0.40;;;0.40;;
65393;SDS011;52002;49.760;6.512;2023-11-22T13:35:21;0.60;;;0.60;;
65393;SDS011;52002;49.760;6.512;2023-11-22T13:37:47;0.30;;;0.30;;
65393;SDS011;52002;49.760;6.512;2023-11-22T13:40:13;0.60;;;0.60;;
65393;SDS011;52002;49.760;6.512;2023-11-22T13:42:47;2.00;;;1.50;;
65393;SDS011;52002;49.760;6.512;2023-11-22T13:45:15;0.60;;;0.40;;
65393;SDS011;52002;49.760;6.512;2023-11-22T13:47:42;0.50;;;0.50;;
65393;SDS011;52002;49.760;6.512;2023-11-22T13:50:09;0.60;;;0.50;;
65393;SDS011;52002;49.760;6.512;2023-11-22T13:52:34;0.80;;;0.50;;
65393;SDS011;52002;49.760;6.512;2023-11-22T13:55:00;0.90;;;0.50;;
65393;SDS011;52002;49.760;6.512;2023-11-22T13:57:26;0.70;;;0.40;;
65393;SDS011;52002;49.760;6.512;2023-11-22T13:59:52;0.60;;;0.40;;
65393;SDS011;52002;49.760;6.512;2023-11-22T14:02:17;0.50;;;0.50;;
65393;SDS011;52002;49.760;6.512;2023-11-22T14:04:42;0.80;;;0.20;;
65393;SDS011;52002;49.760;6.512;2023-11-22T14:07:09;0.40;;;0.40;;
65393;SDS011;52002;49.760;6.512;2023-11-22T14:09:34;0.60;;;0.60;;
65393;SDS011;52002;49.760;6.512;2023-11-22T14:12:03;0.40;;;0.40;;
65393;SDS011;52002;49.760;6.512;2023-11-22T14:14:29;2.30;;;0.50;;
65393;SDS011;52002;49.760;6.512;2023-11-22T14:16:55;3.70;;;0.40;;
65393;SDS011;52002;49.760;6.512;2023-11-22T14:19:20;0.40;;;0.30;;
65393;SDS011;52002;49.760;6.512;2023-11-22T14:21:45;0.60;;;0.50;;
65393;SDS011;52002;49.760;6.512;2023-11-22T14:24:10;0.30;;;0.30;;
65393;SDS011;52002;49.760;6.512;2023-11-22T14:26:37;0.50;;;0.50;;
65393;SDS011;52002;49.760;6.512;2023-11-22T14:29:03;0.40;;;0.30;;
65393;SDS011;52002;49.760;6.512;2023-11-22T14:31:30;0.40;;;0.40;;
65393;SDS011;52002;49.760;6.512;2023-11-22T14:33:56;0.90;;;0.40;;
65393;SDS011;52002;49.760;6.512;2023-11-22T14:36:22;2.90;;;0.60;;
65393;SDS011;52002;49.760;6.512;2023-11-22T14:38:48;5.50;;;0.60;;
65393;SDS011;52002;49.760;6.512;2023-11-22T14:41:19;0.70;;;0.50;;
65393;SDS011;52002;49.760;6.512;2023-11-22T14:43:45;0.60;;;0.30;;
65393;SDS011;52002;49.760;6.512;2023-11-22T14:46:11;2.30;;;0.60;;